Time,TemperatureF,DewpointF,PressureIn,WindDirection,WindDirectionDegrees,WindSpeedMPH,WindSpeedGustMPH,Humidity,HourlyPrecipIn,Conditions,Clouds,dailyrainin,SoftwareType,DateUTC
2013-08-01 00:11:00,69.5,64.0,30.04,WSW,252,0.0,0.0,83,0.00,,,0.00,weatherlink.com 1.10,2013-08-01 04:11:00,
2013-08-01 00:26:00,69.2,64.0,30.03,WSW,253,0.0,0.0,83,0.00,,,0.00,weatherlink.com 1.10,2013-08-01 04:26:00,
2013-08-01 00:41:00,69.0,64.0,30.03,WSW,253,0.0,0.0,84,0.00,,,0.00,weatherlink.com 1.10,2013-08-01 04:41:00,
2013-08-01 00:56:00,68.9,64.0,30.03,WSW,253,0.0,0.0,85,0.00,,,0.00,weatherlink.com 1.10,2013-08-01 04:56:00,
2013-08-01 01:11:00,68.9,64.0,30.02,WSW,253,0.0,0.0,85,0.00,,,0.00,weatherlink.com 1.10,2013-08-01 05:11:00,
2013-08-01 01:26:00,68.7,64.0,30.02,WSW,253,0.0,0.0,85,0.00,,,0.00,weatherlink.com 1.10,2013-08-01 05:26:00,
2013-08-01 01:56:00,68.4,64.0,30.01,WSW,253,0.0,0.0,86,0.00,,,0.00,weatherlink.com 1.10,2013-08-01 05:56:00,
2013-08-01 02:26:00,68.3,64.0,30.00,WSW,253,0.0,0.0,87,0.00,,,0.00,weatherlink.com 1.10,2013-08-01 06:26:00,
2013-08-01 02:56:00,68.5,65.0,29.99,WSW,253,0.0,0.0,87,0.00,,,0.00,weatherlink.com 1.10,2013-08-01 06:56:00,
2013-08-01 03:11:00,68.6,65.0,29.99,WSW,253,0.0,0.0,87,0.00,,,0.00,weatherlink.com 1.10,2013-08-01 07:11:00,
2013-08-01 03:41:00,68.8,65.0,29.98,WSW,253,0.0,0.0,87,0.00,,,0.00,weatherlink.com 1.10,2013-08-01 07:41:00,
2013-08-01 04:11:00,68.9,65.0,29.97,WSW,253,0.0,0.0,86,0.00,,,0.00,weatherlink.com 1.10,2013-08-01 08:11:00,
2013-08-01 04:26:00,68.9,65.0,29.97,WSW,253,0.0,0.0,86,0.00,,,0.00,weatherlink.com 1.10,2013-08-01 08:26:00,
2013-08-01 04:41:00,68.8,65.0,29.97,WSW,253,0.0,0.0,87,0.00,,,0.00,weatherlink.com 1.10,2013-08-01 08:41:00,
2013-08-01 05:26:00,67.8,64.0,29.97,WSW,253,0.0,0.0,88,0.00,,,0.00,weatherlink.com 1.10,2013-08-01 09:26:00,
2013-08-01 05:41:00,67.5,64.0,29.97,WSW,253,0.0,0.0,89,0.00,,,0.00,weatherlink.com 1.10,2013-08-01 09:41:00,
2013-08-01 05:56:00,67.3,64.0,29.97,WSW,253,0.0,0.0,89,0.00,,,0.00,weatherlink.com 1.10,2013-08-01 09:56:00,
2013-08-01 06:26:00,67.4,65.0,29.97,WSW,253,0.0,0.0,90,0.00,,,0.00,weatherlink.com 1.10,2013-08-01 10:26:00,
2013-08-01 06:56:00,68.0,65.0,29.97,WSW,253,0.0,0.0,90,0.00,,,0.00,weatherlink.com 1.10,2013-08-01 10:56:00,
2013-08-01 07:11:00,68.5,65.0,29.97,WSW,252,0.0,0.0,89,0.00,,,0.00,weatherlink.com 1.10,2013-08-01 11:11:00,
2013-08-01 07:42:00,69.5,66.0,29.96,WSW,253,0.0,0.0,88,0.00,,,0.00,weatherlink.com 1.10,2013-08-01 11:42:00,
2013-08-01 07:57:00,70.9,66.0,29.96,West,262,0.0,1.0,85,0.00,,,0.00,weatherlink.com 1.10,2013-08-01 11:57:00,
2013-08-01 08:12:00,71.6,66.0,29.96,South,169,0.0,0.0,82,0.00,,,0.00,weatherlink.com 1.10,2013-08-01 12:12:00,
2013-08-01 08:42:00,72.2,66.0,29.95,WSW,243,0.0,2.0,80,0.00,,,0.00,weatherlink.com 1.10,2013-08-01 12:42:00,
2013-08-01 09:12:00,71.8,66.0,29.95,West,273,0.0,2.0,82,0.00,,,0.00,weatherlink.com 1.10,2013-08-01 13:12:00,
2013-08-01 09:27:00,71.5,67.0,29.95,WSW,249,0.0,2.0,84,0.00,,,0.00,weatherlink.com 1.10,2013-08-01 13:27:00,
2013-08-01 09:42:00,71.4,66.0,29.95,West,268,1.0,3.0,84,0.00,,,0.00,weatherlink.com 1.10,2013-08-01 13:42:00,
2013-08-01 10:12:00,70.3,67.0,29.95,West,262,0.0,1.0,88,0.00,,,0.00,weatherlink.com 1.10,2013-08-01 14:12:00,
2013-08-01 10:27:00,69.4,66.0,29.95,SSW,203,0.0,2.0,89,0.00,,,0.00,weatherlink.com 1.10,2013-08-01 14:27:00,
2013-08-01 10:57:00,68.3,66.0,29.96,West,274,1.0,1.0,92,0.03,,,0.03,weatherlink.com 1.10,2013-08-01 14:57:00,
2013-08-01 11:27:00,67.1,65.0,29.95,SW,218,0.0,1.0,92,0.07,,,0.07,weatherlink.com 1.10,2013-08-01 15:27:00,
2013-08-01 11:42:00,67.1,65.0,29.95,NE,56,0.0,1.0,92,0.07,,,0.07,weatherlink.com 1.10,2013-08-01 15:42:00,
2013-08-01 11:57:00,66.6,64.0,29.95,SW,225,0.0,1.0,92,0.10,,,0.13,weatherlink.com 1.10,2013-08-01 15:57:00,
2013-08-01 12:12:00,66.3,65.0,29.94,SW,228,0.0,0.0,94,0.24,,,0.30,weatherlink.com 1.10,2013-08-01 16:12:00,
2013-08-01 12:57:00,65.8,64.0,29.94,West,276,0.0,0.0,95,0.28,,,0.44,weatherlink.com 1.10,2013-08-01 16:57:00,
2013-08-01 13:12:00,65.8,65.0,29.93,WNW,283,0.0,1.0,96,0.20,,,0.51,weatherlink.com 1.10,2013-08-01 17:12:00,
2013-08-01 13:27:00,66.2,65.0,29.93,West,281,0.0,0.0,96,0.21,,,0.53,weatherlink.com 1.10,2013-08-01 17:27:00,
2013-08-01 13:42:00,66.5,65.0,29.93,West,281,0.0,0.0,96,0.16,,,0.54,weatherlink.com 1.10,2013-08-01 17:42:00,
2013-08-01 13:57:00,66.8,66.0,29.92,West,281,0.0,1.0,96,0.11,,,0.56,weatherlink.com 1.10,2013-08-01 17:57:00,
2013-08-01 14:12:00,67.1,66.0,29.91,NNW,333,0.0,1.0,97,0.08,,,0.59,weatherlink.com 1.10,2013-08-01 18:12:00,
2013-08-01 14:27:00,67.1,66.0,29.91,North,349,0.0,1.0,96,0.14,,,0.67,weatherlink.com 1.10,2013-08-01 18:27:00,
2013-08-01 15:42:00,66.4,66.0,29.88,North,353,0.0,1.0,97,0.29,,,1.01,weatherlink.com 1.10,2013-08-01 19:42:00,
2013-08-01 15:57:00,66.6,66.0,29.88,SE,141,0.0,1.0,97,0.23,,,1.04,weatherlink.com 1.10,2013-08-01 19:57:00,
2013-08-01 16:27:00,66.8,66.0,29.87,ESE,118,0.0,1.0,97,0.05,,,1.05,weatherlink.com 1.10,2013-08-01 20:27:00,
2013-08-01 16:42:00,66.9,66.0,29.86,SSE,160,0.0,1.0,97,0.04,,,1.05,weatherlink.com 1.10,2013-08-01 20:42:00,
2013-08-01 17:12:00,67.7,67.0,29.86,WNW,302,0.0,1.0,97,0.01,,,1.06,weatherlink.com 1.10,2013-08-01 21:12:00,
2013-08-01 17:27:00,68.2,67.0,29.86,West,259,1.0,1.0,97,0.01,,,1.06,weatherlink.com 1.10,2013-08-01 21:27:00,
2013-08-01 17:42:00,68.3,68.0,29.85,NNE,16,0.0,1.0,97,0.02,,,1.07,weatherlink.com 1.10,2013-08-01 21:42:00,
2013-08-01 18:13:00,68.4,68.0,29.84,West,270,0.0,1.0,97,0.02,,,1.08,weatherlink.com 1.10,2013-08-01 22:13:00,
2013-08-01 18:28:00,68.5,68.0,29.84,WNW,284,0.0,1.0,97,0.02,,,1.08,weatherlink.com 1.10,2013-08-01 22:28:00,
2013-08-01 18:58:00,68.7,68.0,29.85,SSE,152,0.0,0.0,97,0.08,,,1.15,weatherlink.com 1.10,2013-08-01 22:58:00,
2013-08-01 19:43:00,69.0,68.0,29.85,NW,308,0.0,1.0,97,0.02,,,1.16,weatherlink.com 1.10,2013-08-01 23:43:00,
2013-08-01 20:28:00,68.8,68.0,29.85,WNW,297,0.0,0.0,97,0.06,,,1.22,weatherlink.com 1.10,2013-08-02 00:28:00,
2013-08-01 20:43:00,68.9,68.0,29.85,West,278,0.0,0.0,97,0.09,,,1.25,weatherlink.com 1.10,2013-08-02 00:43:00,
2013-08-01 20:58:00,68.9,68.0,29.84,West,278,0.0,0.0,97,0.10,,,1.26,weatherlink.com 1.10,2013-08-02 00:58:00,
2013-08-01 21:13:00,68.9,68.0,29.84,West,278,0.0,0.0,97,0.06,,,1.26,weatherlink.com 1.10,2013-08-02 01:13:00,
2013-08-01 21:28:00,69.0,68.0,29.85,West,278,0.0,0.0,97,0.04,,,1.26,weatherlink.com 1.10,2013-08-02 01:28:00,
2013-08-01 21:43:00,69.1,69.0,29.85,West,278,0.0,0.0,98,0.01,,,1.26,weatherlink.com 1.10,2013-08-02 01:43:00,
2013-08-01 21:58:00,69.1,69.0,29.85,West,278,0.0,1.0,98,0.00,,,1.26,weatherlink.com 1.10,2013-08-02 01:58:00,
2013-08-01 22:13:00,69.2,69.0,29.84,NW,326,0.0,1.0,98,0.00,,,1.26,weatherlink.com 1.10,2013-08-02 02:13:00,
2013-08-01 22:28:00,69.0,69.0,29.84,NW,326,0.0,0.0,98,0.00,,,1.26,weatherlink.com 1.10,2013-08-02 02:28:00,
2013-08-01 22:58:00,69.0,69.0,29.84,NW,326,0.0,0.0,98,0.01,,,1.27,weatherlink.com 1.10,2013-08-02 02:58:00,
2013-08-01 23:13:00,69.0,69.0,29.84,NW,326,0.0,0.0,98,0.01,,,1.27,weatherlink.com 1.10,2013-08-02 03:13:00,
2013-08-01 23:28:00,69.0,69.0,29.84,NW,326,0.0,0.0,98,0.01,,,1.27,weatherlink.com 1.10,2013-08-02 03:28:00,
2013-08-01 23:58:00,68.9,68.0,29.84,NW,326,0.0,0.0,98,0.00,,,1.27,weatherlink.com 1.10,2013-08-02 03:58:00,